createdAt,value
2017-08-17T00:27:20.114Z,99.90
2017-08-17T00:29:46.230Z,99.90
2017-08-17T00:32:12.478Z,99.90
2017-08-17T00:34:38.823Z,99.90
2017-08-17T00:37:05.133Z,99.90
2017-08-17T00:39:31.333Z,99.90
2017-08-17T00:41:57.590Z,99.90
2017-08-17T00:44:23.784Z,99.90
2017-08-17T00:46:50.334Z,99.90
2017-08-17T00:49:16.578Z,99.90
2017-08-17T00:51:42.829Z,99.90
2017-08-17T00:54:09.683Z,99.90
2017-08-17T00:56:36.690Z,99.90
2017-08-17T00:59:02.942Z,99.90
2017-08-17T01:01:29.111Z,99.90
2017-08-17T01:03:55.998Z,99.90
2017-08-17T01:06:22.212Z,99.90
2017-08-17T01:08:48.410Z,99.90
2017-08-17T01:11:14.657Z,99.90
2017-08-17T01:13:40.911Z,99.90
2017-08-17T01:16:07.093Z,99.90
2017-08-17T01:18:33.282Z,99.90
2017-08-17T01:20:59.451Z,99.90
2017-08-17T01:23:25.597Z,99.90
2017-08-17T01:25:51.858Z,99.90
2017-08-17T01:28:18.038Z,99.90
2017-08-17T01:30:44.183Z,99.90
2017-08-17T01:33:10.412Z,99.90
2017-08-17T01:35:36.627Z,99.90
2017-08-17T01:38:02.838Z,99.90
2017-08-17T01:40:29.721Z,99.90
2017-08-17T01:42:56.030Z,99.90
2017-08-17T01:45:22.265Z,99.90
2017-08-17T01:47:48.519Z,99.90
2017-08-17T01:50:14.735Z,99.90
2017-08-17T01:52:40.938Z,99.90
2017-08-17T01:55:07.201Z,99.90
2017-08-17T01:57:33.392Z,99.90
2017-08-17T01:59:59.558Z,99.90
2017-08-17T02:02:25.763Z,99.90
2017-08-17T02:04:51.971Z,99.90
2017-08-17T02:07:18.095Z,99.90
2017-08-17T02:09:44.425Z,99.90
2017-08-17T02:12:10.551Z,99.90
2017-08-17T02:14:36.683Z,99.90
2017-08-17T02:17:02.809Z,99.90
2017-08-17T02:19:29.646Z,99.90
2017-08-17T02:21:55.781Z,99.90
2017-08-17T02:24:22.020Z,99.90
2017-08-17T02:26:48.221Z,99.90
2017-08-17T02:29:14.349Z,99.90
2017-08-17T02:31:40.490Z,99.90
2017-08-17T02:34:06.630Z,99.90
2017-08-17T02:36:32.817Z,99.90
2017-08-17T02:38:58.989Z,99.90
2017-08-17T02:41:25.229Z,99.90
2017-08-17T02:43:51.418Z,99.90
2017-08-17T02:46:17.557Z,99.90
2017-08-17T02:48:43.768Z,99.90
2017-08-17T02:51:10.613Z,99.90
2017-08-17T02:53:36.759Z,99.90
2017-08-17T02:56:02.953Z,99.90
2017-08-17T02:58:29.089Z,99.90
2017-08-17T03:00:59.270Z,99.90
2017-08-17T03:03:25.443Z,99.90
2017-08-17T03:05:51.552Z,99.90
2017-08-17T03:08:17.727Z,99.90
2017-08-17T03:10:43.926Z,99.90
2017-08-17T03:13:10.050Z,99.90
2017-08-17T03:15:36.430Z,99.90
2017-08-17T03:18:02.594Z,99.90
2017-08-17T03:20:28.717Z,99.90
2017-08-17T03:22:55.108Z,99.90
2017-08-17T03:25:21.292Z,99.90
2017-08-17T03:27:47.495Z,99.90
2017-08-17T03:30:13.891Z,99.90
2017-08-17T03:32:40.089Z,99.90
2017-08-17T03:35:06.941Z,99.90
2017-08-17T03:37:33.900Z,99.90
2017-08-17T03:40:00.825Z,99.90
2017-08-17T03:42:27.765Z,99.90
2017-08-17T03:44:53.896Z,99.90
2017-08-17T03:47:20.853Z,99.90
2017-08-17T03:49:46.945Z,99.90
2017-08-17T03:52:13.105Z,99.90
2017-08-17T03:54:39.311Z,99.90
2017-08-17T03:57:05.430Z,99.90
2017-08-17T03:59:31.578Z,99.90
2017-08-17T04:01:58.557Z,99.90
2017-08-17T04:04:25.464Z,99.90
2017-08-17T04:06:51.698Z,99.90
2017-08-17T04:09:18.627Z,99.90
2017-08-17T04:11:45.469Z,99.90
2017-08-17T04:14:12.327Z,99.90
2017-08-17T04:16:39.551Z,99.90
2017-08-17T04:19:05.678Z,99.90
2017-08-17T04:21:32.707Z,99.90
2017-08-17T04:23:59.622Z,99.90
2017-08-17T04:26:25.852Z,99.90
2017-08-17T04:28:51.991Z,99.90
2017-08-17T04:31:18.147Z,99.90
2017-08-17T04:33:44.282Z,99.90
2017-08-17T04:36:10.441Z,99.90
2017-08-17T04:38:37.419Z,99.90
2017-08-17T04:41:03.552Z,99.90
2017-08-17T04:43:30.656Z,99.90
2017-08-17T04:45:56.859Z,99.90
2017-08-17T04:48:23.707Z,99.90
2017-08-17T04:50:50.585Z,99.90
2017-08-17T04:53:17.496Z,99.90
2017-08-17T04:55:43.592Z,99.90
2017-08-17T04:58:29.234Z,99.90
2017-08-17T05:00:55.342Z,99.90
2017-08-17T05:03:21.551Z,99.90
2017-08-17T05:05:48.544Z,99.90
2017-08-17T05:08:14.774Z,99.90
2017-08-17T05:10:41.014Z,99.90
2017-08-17T05:13:07.197Z,99.90
2017-08-17T05:15:33.409Z,99.90
2017-08-17T05:17:59.541Z,99.90
2017-08-17T05:20:25.700Z,99.90
2017-08-17T05:22:51.887Z,99.90
2017-08-17T05:25:18.043Z,99.90
2017-08-17T05:27:44.274Z,99.90
2017-08-17T05:30:11.524Z,99.90
2017-08-17T05:32:38.783Z,99.90
2017-08-17T05:35:06.062Z,99.90
2017-08-17T05:37:32.216Z,99.90
2017-08-17T05:39:58.436Z,99.90
2017-08-17T05:42:25.347Z,99.90
2017-08-17T05:44:52.261Z,99.90
2017-08-17T05:47:19.517Z,99.90
2017-08-17T05:49:46.573Z,99.90
2017-08-17T05:52:13.810Z,99.90
2017-08-17T05:54:40.654Z,99.90
2017-08-17T05:57:07.930Z,99.90
2017-08-17T05:59:34.026Z,99.90
2017-08-17T06:02:00.898Z,99.70
2017-08-17T06:04:27.847Z,99.90
2017-08-17T06:06:54.767Z,99.00
2017-08-17T06:09:21.273Z,99.10
2017-08-17T06:11:47.656Z,98.80
2017-08-17T06:14:14.573Z,98.80
2017-08-17T06:16:41.426Z,96.60
2017-08-17T06:19:08.764Z,91.90
2017-08-17T06:21:35.630Z,89.60
2017-08-17T06:24:02.166Z,89.40
2017-08-17T06:26:29.129Z,86.30
2017-08-17T06:28:55.489Z,86.30
2017-08-17T06:31:21.638Z,83.40
2017-08-17T06:33:48.214Z,83.30
2017-08-17T06:36:14.392Z,80.00
2017-08-17T06:38:41.298Z,74.30
2017-08-17T06:41:07.628Z,74.20
2017-08-17T06:43:33.802Z,72.90
2017-08-17T06:45:59.940Z,69.60
2017-08-17T06:48:26.261Z,72.10
2017-08-17T06:50:52.419Z,71.40
2017-08-17T06:53:18.637Z,66.80
2017-08-17T06:55:45.206Z,67.10
2017-08-17T06:58:11.314Z,63.10
2017-08-17T07:00:37.522Z,64.30
2017-08-17T07:03:03.974Z,63.60
2017-08-17T07:05:30.158Z,63.60
2017-08-17T07:07:56.305Z,62.20
2017-08-17T07:10:22.852Z,62.40
2017-08-17T07:12:49.112Z,61.00
2017-08-17T07:15:16.224Z,58.10
2017-08-17T07:17:42.435Z,58.10
2017-08-17T07:20:08.594Z,57.10
2017-08-17T07:22:35.028Z,55.10
2017-08-17T07:25:01.283Z,55.10
2017-08-17T07:27:27.555Z,56.80
2017-08-17T07:29:54.522Z,57.50
2017-08-17T07:32:20.759Z,56.50
2017-08-17T07:34:48.011Z,57.30
2017-08-17T07:37:15.301Z,57.30
2017-08-17T07:39:41.521Z,53.10
2017-08-17T07:42:07.794Z,53.50
2017-08-17T07:44:34.013Z,54.30
2017-08-17T07:47:00.199Z,53.80
2017-08-17T07:49:26.394Z,52.20
2017-08-17T07:51:52.609Z,52.00
2017-08-17T07:54:18.840Z,50.30
2017-08-17T07:56:44.965Z,50.90
2017-08-17T07:59:11.101Z,50.20
2017-08-17T08:01:37.354Z,50.90
2017-08-17T08:04:03.544Z,50.40
2017-08-17T08:06:29.741Z,50.00
2017-08-17T08:08:55.972Z,49.90
2017-08-17T08:11:22.135Z,49.80
2017-08-17T08:13:48.351Z,51.20
2017-08-17T08:16:14.516Z,53.10
2017-08-17T08:18:40.740Z,50.40
2017-08-17T08:21:06.944Z,48.80
2017-08-17T08:23:33.130Z,50.80
2017-08-17T08:25:59.316Z,51.00
2017-08-17T08:28:25.539Z,50.30
2017-08-17T08:30:51.800Z,48.10
2017-08-17T08:33:18.000Z,51.30
2017-08-17T08:35:44.977Z,47.60
2017-08-17T08:38:11.206Z,47.70
2017-08-17T08:40:37.377Z,49.50
2017-08-17T08:43:03.534Z,47.30
2017-08-17T08:45:29.782Z,47.30
2017-08-17T08:47:55.946Z,48.90
2017-08-17T08:50:22.091Z,47.90
2017-08-17T08:52:48.369Z,47.90
2017-08-17T08:55:14.549Z,45.20
2017-08-17T08:57:40.672Z,43.10
2017-08-17T09:00:07.619Z,44.70
2017-08-17T09:02:33.953Z,44.30
2017-08-17T09:05:00.175Z,46.60
2017-08-17T09:07:26.340Z,45.80
2017-08-17T09:09:52.523Z,45.10
2017-08-17T09:12:18.676Z,43.20
2017-08-17T09:14:44.969Z,43.70
2017-08-17T09:17:11.156Z,44.30
2017-08-17T09:19:37.344Z,44.50
2017-08-17T09:22:03.530Z,43.10
2017-08-17T09:24:30.708Z,41.70
2017-08-17T09:26:56.921Z,43.30
2017-08-17T09:29:23.110Z,44.50
2017-08-17T09:31:49.392Z,44.40
2017-08-17T09:34:15.535Z,42.60
2017-08-17T09:36:41.700Z,41.00
2017-08-17T09:39:07.889Z,42.40
2017-08-17T09:41:34.001Z,41.70
2017-08-17T09:44:00.161Z,42.40
2017-08-17T09:46:26.360Z,43.10
2017-08-17T09:48:52.495Z,43.50
2017-08-17T09:51:18.665Z,45.10
2017-08-17T09:53:45.854Z,43.90
2017-08-17T09:56:11.984Z,42.80
2017-08-17T09:58:38.159Z,42.90
2017-08-17T10:01:04.297Z,42.70
2017-08-17T10:03:30.458Z,41.30
2017-08-17T10:05:56.623Z,40.10
2017-08-17T10:08:22.838Z,39.50
2017-08-17T10:10:49.362Z,39.50
2017-08-17T10:13:15.529Z,39.20
2017-08-17T10:15:41.722Z,38.80
2017-08-17T10:18:08.556Z,38.60
2017-08-17T10:20:34.704Z,38.60
2017-08-17T10:23:01.038Z,38.70
2017-08-17T10:25:27.316Z,39.30
2017-08-17T10:27:53.517Z,38.50
2017-08-17T10:30:19.718Z,38.40
2017-08-17T10:32:45.925Z,37.80
2017-08-17T10:35:12.076Z,38.50
2017-08-17T10:37:38.185Z,37.40
2017-08-17T10:40:04.299Z,37.80
2017-08-17T10:42:31.198Z,39.30
2017-08-17T10:44:58.149Z,38.60
2017-08-17T10:47:24.299Z,38.60
2017-08-17T10:49:50.465Z,38.60
2017-08-17T10:52:16.691Z,38.80
2017-08-17T10:54:42.904Z,37.80
2017-08-17T10:57:09.068Z,39.70
2017-08-17T10:59:35.257Z,40.60
2017-08-17T11:02:01.396Z,40.80
2017-08-17T11:04:27.721Z,39.90
2017-08-17T11:06:53.877Z,40.40
2017-08-17T11:09:20.103Z,38.70
2017-08-17T11:11:46.327Z,39.30
2017-08-17T11:14:12.458Z,38.50
2017-08-17T11:16:38.640Z,38.70
2017-08-17T11:19:04.819Z,38.60
2017-08-17T11:21:31.073Z,39.40
2017-08-17T11:23:57.255Z,40.70
2017-08-17T11:26:23.520Z,38.10
2017-08-17T11:28:49.717Z,37.60
2017-08-17T11:31:15.843Z,36.80
2017-08-17T11:33:43.648Z,34.90
2017-08-17T11:36:09.839Z,34.90
2017-08-17T11:38:36.044Z,36.40
2017-08-17T11:41:03.761Z,35.10
2017-08-17T11:43:29.917Z,35.70
2017-08-17T11:45:56.171Z,35.80
2017-08-17T11:48:24.139Z,37.80
2017-08-17T11:50:50.377Z,37.80
2017-08-17T11:53:16.571Z,35.70
2017-08-17T11:55:42.725Z,34.90
2017-08-17T11:58:08.925Z,34.50
2017-08-17T12:00:35.191Z,34.50
2017-08-17T12:03:01.437Z,37.00
2017-08-17T12:05:27.638Z,37.50
2017-08-17T12:07:54.604Z,37.20
2017-08-17T12:10:20.768Z,36.80
2017-08-17T12:12:47.677Z,36.00
2017-08-17T12:15:13.869Z,36.00
2017-08-17T12:17:40.131Z,36.50
2017-08-17T12:20:06.346Z,36.50
2017-08-17T12:22:32.549Z,36.80
2017-08-17T12:24:58.718Z,38.20
2017-08-17T12:27:24.956Z,37.00
2017-08-17T12:29:51.883Z,35.70
2017-08-17T12:32:18.101Z,35.70
2017-08-17T12:34:44.304Z,36.90
2017-08-17T12:37:10.454Z,37.50
2017-08-17T12:39:36.697Z,37.10
2017-08-17T12:42:02.911Z,37.60
2017-08-17T12:44:29.153Z,38.40
2017-08-17T12:46:55.322Z,37.00
2017-08-17T12:49:21.487Z,36.00
2017-08-17T12:51:47.714Z,35.40
2017-08-17T12:54:13.973Z,36.70
2017-08-17T12:56:40.183Z,35.70
2017-08-17T12:59:06.417Z,35.10
2017-08-17T13:01:32.681Z,35.80
2017-08-17T13:03:58.866Z,37.00
2017-08-17T13:06:25.122Z,39.20
2017-08-17T13:08:51.341Z,38.80
2017-08-17T13:11:17.541Z,38.70
2017-08-17T13:13:43.819Z,39.30
2017-08-17T13:16:10.068Z,39.80
2017-08-17T13:18:36.262Z,40.10
2017-08-17T13:21:02.491Z,40.40
2017-08-17T13:23:28.702Z,40.70
2017-08-17T13:25:54.924Z,41.10
2017-08-17T13:28:21.228Z,40.90
2017-08-17T13:30:47.423Z,42.90
2017-08-17T13:33:13.630Z,42.50
2017-08-17T13:35:39.827Z,42.70
2017-08-17T13:38:06.129Z,43.00
2017-08-17T13:40:32.251Z,43.50
2017-08-17T13:42:58.410Z,43.00
2017-08-17T13:45:24.669Z,43.40
2017-08-17T13:47:50.906Z,43.60
2017-08-17T13:50:17.121Z,43.70
2017-08-17T13:52:43.371Z,43.10
2017-08-17T13:55:09.644Z,42.70
2017-08-17T13:57:35.806Z,43.50
2017-08-17T14:00:02.081Z,43.20
2017-08-17T14:02:28.263Z,43.40
2017-08-17T14:04:54.444Z,43.90
2017-08-17T14:07:20.619Z,43.30
2017-08-17T14:09:46.782Z,42.60
2017-08-17T14:12:13.026Z,43.40
2017-08-17T14:14:39.297Z,43.30
2017-08-17T14:17:06.254Z,43.30
2017-08-17T14:19:32.419Z,43.70
2017-08-17T14:21:58.601Z,44.00
2017-08-17T14:24:24.789Z,43.40
2017-08-17T14:26:50.921Z,43.20
2017-08-17T14:29:17.114Z,43.60
2017-08-17T14:31:43.325Z,42.90
2017-08-17T14:34:09.461Z,43.60
2017-08-17T14:36:36.649Z,42.80
2017-08-17T14:39:02.807Z,42.60
2017-08-17T14:41:29.014Z,43.60
2017-08-17T14:43:55.303Z,44.50
2017-08-17T14:46:21.471Z,44.40
2017-08-17T14:48:47.726Z,44.70
2017-08-17T14:51:14.005Z,44.30
2017-08-17T14:53:40.156Z,43.70
2017-08-17T14:56:06.377Z,42.90
2017-08-17T14:58:32.648Z,42.60
2017-08-17T15:00:58.830Z,43.30
2017-08-17T15:03:25.704Z,42.80
2017-08-17T15:05:51.940Z,43.60
2017-08-17T15:08:18.162Z,43.90
2017-08-17T15:10:44.293Z,44.20
2017-08-17T15:13:10.593Z,45.30
2017-08-17T15:15:37.848Z,45.80
2017-08-17T15:18:04.096Z,45.80
2017-08-17T15:20:30.326Z,45.50
2017-08-17T15:22:56.541Z,45.70
2017-08-17T15:25:22.822Z,45.70
2017-08-17T15:27:50.143Z,45.60
2017-08-17T15:30:16.256Z,45.90
2017-08-17T15:32:42.461Z,46.20
2017-08-17T15:35:08.618Z,46.60
2017-08-17T15:37:34.887Z,46.70
2017-08-17T15:40:01.058Z,47.10
2017-08-17T15:42:28.061Z,47.80
2017-08-17T15:44:54.237Z,47.80
2017-08-17T15:47:20.472Z,47.50
2017-08-17T15:49:46.783Z,47.70
2017-08-17T15:52:13.031Z,47.70
2017-08-17T15:54:39.237Z,48.30
2017-08-17T15:57:05.517Z,49.10
2017-08-17T15:59:31.690Z,49.20
2017-08-17T16:01:57.803Z,49.50
2017-08-17T16:04:24.050Z,49.70
2017-08-17T16:06:50.923Z,49.40
2017-08-17T16:09:17.116Z,49.40
2017-08-17T16:11:44.064Z,50.00
2017-08-17T16:14:11.672Z,50.10
2017-08-17T16:16:38.160Z,50.70
2017-08-17T16:19:04.292Z,50.60
2017-08-17T16:21:31.294Z,51.00
2017-08-17T16:23:57.691Z,51.00
2017-08-17T16:26:23.924Z,51.50
2017-08-17T16:28:50.163Z,51.30
2017-08-17T16:31:16.442Z,52.10
2017-08-17T16:33:42.636Z,51.90
2017-08-17T16:36:08.801Z,51.80
2017-08-17T16:38:35.002Z,51.90
2017-08-17T16:41:02.110Z,52.10
2017-08-17T16:43:28.417Z,52.10
2017-08-17T16:45:54.643Z,53.10
2017-08-17T16:48:20.936Z,52.30
2017-08-17T16:50:47.206Z,52.70
2017-08-17T16:53:14.084Z,52.30
2017-08-17T16:55:41.407Z,52.50
2017-08-17T16:58:07.674Z,52.70
2017-08-17T17:00:33.938Z,52.90
2017-08-17T17:03:00.116Z,53.20
2017-08-17T17:05:26.346Z,53.30
2017-08-17T17:07:52.576Z,53.30
2017-08-17T17:10:18.809Z,53.60
2017-08-17T17:12:45.890Z,53.20
2017-08-17T17:15:12.247Z,53.30
2017-08-17T17:17:38.598Z,53.70
2017-08-17T17:20:05.981Z,53.50
2017-08-17T17:22:32.180Z,53.40
2017-08-17T17:24:58.510Z,53.60
2017-08-17T17:27:24.749Z,53.90
2017-08-17T17:29:51.653Z,54.10
2017-08-17T17:32:18.001Z,54.40
2017-08-17T17:34:44.231Z,54.40
2017-08-17T17:37:10.536Z,54.50
2017-08-17T17:39:37.075Z,55.00
2017-08-17T17:42:03.336Z,55.10
2017-08-17T17:44:29.732Z,56.10
2017-08-17T17:46:56.094Z,56.10
2017-08-17T17:49:22.648Z,56.50
2017-08-17T17:51:48.944Z,56.70
2017-08-17T17:54:15.347Z,57.00
2017-08-17T17:56:41.585Z,57.30
2017-08-17T17:59:07.740Z,57.30
2017-08-17T18:01:34.034Z,57.70
2017-08-17T18:04:00.205Z,57.80
2017-08-17T18:06:26.444Z,57.90
2017-08-17T18:08:52.765Z,58.00
2017-08-17T18:11:19.126Z,58.40
2017-08-17T18:13:45.329Z,58.60
2017-08-17T18:16:11.573Z,58.50
2017-08-17T18:18:37.744Z,58.90
2017-08-17T18:21:03.992Z,59.00
2017-08-17T18:23:30.191Z,58.90
2017-08-17T18:25:56.391Z,58.80
2017-08-17T18:28:22.601Z,59.00
2017-08-17T18:30:48.838Z,59.00
2017-08-17T18:33:15.056Z,59.20
2017-08-17T18:35:41.213Z,59.30
2017-08-17T18:38:07.456Z,61.00
2017-08-17T18:40:33.638Z,61.40
2017-08-17T18:43:00.136Z,61.80
2017-08-17T18:45:26.520Z,62.00
2017-08-17T18:47:52.930Z,62.70
2017-08-17T18:50:20.179Z,64.40
2017-08-17T18:52:46.535Z,64.40
2017-08-17T18:55:13.151Z,68.50
2017-08-17T18:57:39.554Z,67.20
2017-08-17T19:00:06.041Z,70.80
2017-08-17T19:02:32.383Z,72.70
2017-08-17T19:04:58.652Z,73.80
2017-08-17T19:07:25.280Z,75.20
2017-08-17T19:09:51.564Z,76.90
2017-08-17T19:12:17.822Z,77.60
2017-08-17T19:14:44.097Z,78.60
2017-08-17T19:17:10.354Z,81.40
2017-08-17T19:19:36.612Z,82.20
2017-08-17T19:22:03.762Z,82.50
2017-08-17T19:24:30.110Z,82.40
2017-08-17T19:26:56.834Z,81.20
2017-08-17T19:29:23.236Z,81.80
2017-08-17T19:31:49.609Z,82.10
2017-08-17T19:34:16.037Z,83.10
2017-08-17T19:36:42.382Z,84.40
2017-08-17T19:39:08.670Z,86.40
2017-08-17T19:41:34.953Z,91.10
2017-08-17T19:44:01.272Z,90.90
2017-08-17T19:46:27.549Z,92.50
2017-08-17T19:48:53.802Z,94.70
2017-08-17T19:51:20.022Z,93.50
2017-08-17T19:53:46.235Z,93.90
2017-08-17T19:56:12.590Z,93.10
2017-08-17T19:58:38.910Z,93.00
2017-08-17T20:01:05.121Z,93.40
2017-08-17T20:03:31.366Z,92.20
2017-08-17T20:05:58.305Z,94.20
2017-08-17T20:08:24.500Z,94.20
2017-08-17T20:10:51.468Z,93.50
2017-08-17T20:13:17.639Z,93.50
2017-08-17T20:15:43.934Z,92.30
2017-08-17T20:18:10.037Z,91.70
2017-08-17T20:20:36.285Z,91.00
2017-08-17T20:23:02.593Z,91.30
2017-08-17T20:25:29.459Z,91.00
2017-08-17T20:27:55.914Z,91.00
2017-08-17T20:30:22.098Z,89.80
2017-08-17T20:32:48.995Z,91.10
2017-08-17T20:35:16.758Z,91.50
2017-08-17T20:37:42.938Z,91.50
2017-08-17T20:40:09.057Z,91.40
2017-08-17T20:42:35.549Z,91.80
2017-08-17T20:45:02.476Z,89.30
2017-08-17T20:47:28.589Z,89.10
2017-08-17T20:49:55.046Z,90.30
2017-08-17T20:52:22.034Z,90.50
2017-08-17T20:54:48.256Z,90.70
2017-08-17T20:57:14.696Z,89.30
2017-08-17T20:59:40.913Z,88.30
2017-08-17T21:02:07.073Z,87.40
2017-08-17T21:04:33.636Z,89.70
2017-08-17T21:06:59.746Z,88.30
2017-08-17T21:09:25.981Z,88.20
2017-08-17T21:11:53.041Z,87.30
2017-08-17T21:14:19.248Z,86.80
2017-08-17T21:16:45.364Z,87.40
2017-08-17T21:19:11.819Z,87.10
2017-08-17T21:21:38.042Z,87.20
2017-08-17T21:24:04.273Z,87.90
2017-08-17T21:26:30.958Z,86.70
2017-08-17T21:28:57.210Z,86.30
2017-08-17T21:31:23.413Z,84.20
2017-08-17T21:33:49.919Z,84.40
2017-08-17T21:36:16.162Z,82.50
2017-08-17T21:38:42.387Z,84.60
2017-08-17T21:41:08.967Z,83.40
2017-08-17T21:43:35.115Z,83.20
2017-08-17T21:46:01.222Z,83.30
2017-08-17T21:48:27.688Z,83.00
2017-08-17T21:50:53.952Z,82.60
2017-08-17T21:53:20.203Z,82.40
2017-08-17T21:55:46.685Z,81.90
2017-08-17T21:58:12.876Z,82.70
2017-08-17T22:00:39.056Z,82.70
2017-08-17T22:03:05.592Z,83.50
2017-08-17T22:05:32.496Z,82.30
2017-08-17T22:07:59.366Z,82.90
2017-08-17T22:10:25.916Z,82.90
2017-08-17T22:12:52.106Z,83.30
2017-08-17T22:15:19.048Z,83.40
2017-08-17T22:17:46.096Z,83.20
2017-08-17T22:20:12.222Z,83.30
2017-08-17T22:22:38.338Z,84.10
2017-08-17T22:25:04.812Z,83.90
2017-08-17T22:27:31.725Z,81.50
2017-08-17T22:29:58.569Z,82.80
2017-08-17T22:32:25.138Z,81.90
2017-08-17T22:34:51.330Z,81.70
2017-08-17T22:37:17.453Z,81.20
2017-08-17T22:39:44.676Z,81.60
2017-08-17T22:42:10.855Z,81.60
2017-08-17T22:44:37.055Z,82.50
2017-08-17T22:47:03.520Z,82.00
2017-08-17T22:49:29.742Z,82.80
2017-08-17T22:51:55.952Z,83.10
2017-08-17T22:54:22.415Z,83.70
2017-08-17T22:56:48.600Z,83.60
2017-08-17T22:59:14.718Z,83.80
2017-08-17T23:01:41.305Z,83.70
2017-08-17T23:04:07.522Z,83.90
2017-08-17T23:06:33.730Z,84.30
2017-08-17T23:08:59.973Z,85.00
2017-08-17T23:11:26.921Z,84.80
2017-08-17T23:13:53.113Z,84.80
2017-08-17T23:16:19.289Z,84.50
2017-08-17T23:18:45.413Z,85.00
2017-08-17T23:21:11.626Z,85.00
2017-08-17T23:23:37.865Z,85.10
2017-08-17T23:26:04.858Z,85.80
2017-08-17T23:28:31.002Z,85.80
2017-08-17T23:30:57.293Z,86.20
2017-08-17T23:33:23.416Z,85.60
2017-08-17T23:35:49.526Z,86.00
2017-08-17T23:38:15.765Z,86.40
2017-08-17T23:40:41.962Z,86.40
2017-08-17T23:43:08.178Z,85.60
2017-08-17T23:45:35.080Z,84.30
2017-08-17T23:48:01.263Z,84.30
2017-08-17T23:50:27.456Z,83.50
2017-08-17T23:52:53.658Z,83.00
2017-08-17T23:55:19.822Z,82.80
2017-08-17T23:57:46.749Z,83.50
